Time;durP1;ratioP1;P1;durP2;ratioP2;P2;SDS_P1;SDS_P2;PMS_P1;PMS_P2;Temp;Humidity;BMP_temperature;BMP_pressure;BME280_temperature;BME280_humidity;BME280_pressure;Samples;Min_cycle;Max_cycle;Signal;HPM_P1;HPM_P2
2023/02/17 00:01:20;;;;;;;7.53;6.63;;;;;11.10;101583.00;;;;10026356;29;20213;-77
2023/02/17 00:06:24;;;;;;;8.33;6.60;;;;;11.10;101592.00;;;;10010530;29;20243;-79
2023/02/17 00:11:27;;;;;;;8.10;7.13;;;;;11.10;101575.00;;;;10025248;29;20322;-78
2023/02/17 00:16:29;;;;;;;7.67;6.43;;;;;11.10;101576.00;;;;9981163;29;20232;-78
2023/02/17 00:21:31;;;;;;;10.67;7.30;;;;;11.10;101576.00;;;;9990415;29;20217;-78
2023/02/17 00:26:33;;;;;;;8.67;6.13;;;;;11.20;101580.00;;;;10026308;29;20217;-79
2023/02/17 00:31:35;;;;;;;7.60;6.03;;;;;11.20;101578.00;;;;10022497;29;20186;-78
2023/02/17 00:36:38;;;;;;;7.63;6.47;;;;;11.20;101580.00;;;;10002664;29;20210;-78
2023/02/17 00:41:40;;;;;;;9.70;6.40;;;;;11.20;101572.00;;;;10021706;29;20280;-78
2023/02/17 00:46:42;;;;;;;6.33;5.60;;;;;11.20;101561.00;;;;10060332;29;20204;-78
2023/02/17 00:51:45;;;;;;;7.60;5.50;;;;;11.20;101547.00;;;;10055773;29;20204;-77
2023/02/17 00:56:47;;;;;;;4.77;4.13;;;;;11.10;101546.00;;;;10044388;29;20221;-78
2023/02/17 01:01:49;;;;;;;5.53;5.03;;;;;11.10;101535.00;;;;10032529;29;20281;-78
2023/02/17 01:06:51;;;;;;;7.20;5.77;;;;;11.10;101528.00;;;;10032294;29;20231;-77
2023/02/17 01:11:52;;;;;;;12.27;5.90;;;;;11.00;101528.00;;;;10017407;29;20268;-78
2023/02/17 01:16:54;;;;;;;6.90;5.60;;;;;11.00;101536.00;;;;10046774;29;20711;-78
2023/02/17 01:21:56;;;;;;;7.17;5.90;;;;;10.90;101529.00;;;;10017496;29;20197;-78
2023/02/17 01:26:58;;;;;;;8.53;5.77;;;;;10.80;101522.00;;;;10016967;29;20577;-79
2023/02/17 01:32:01;;;;;;;8.40;6.77;;;;;10.80;101529.00;;;;10039388;29;20212;-77
2023/02/17 01:37:03;;;;;;;9.03;6.83;;;;;10.80;101530.00;;;;10046052;29;20239;-77
2023/02/17 01:42:18;;;;;;;7.97;5.47;;;;;10.90;101519.00;;;;10061395;29;20653;-78
2023/02/17 01:47:22;;;;;;;7.87;6.20;;;;;10.90;101532.00;;;;10046691;29;20679;-77
2023/02/17 01:52:25;;;;;;;9.00;6.10;;;;;10.80;101529.00;;;;10046677;29;20200;-78
2023/02/17 01:57:30;;;;;;;6.97;5.13;;;;;10.80;101534.00;;;;9993199;29;20316;-78
2023/02/17 02:02:33;;;;;;;8.00;5.63;;;;;10.80;101528.00;;;;10016309;29;20209;-77
2023/02/17 02:07:39;;;;;;;8.30;5.97;;;;;10.70;101530.00;;;;10016101;29;20220;-77
2023/02/17 02:12:43;;;;;;;9.10;6.37;;;;;10.60;101536.00;;;;10016026;29;20197;-77
2023/02/17 02:17:45;;;;;;;9.00;6.23;;;;;10.50;101540.00;;;;10061625;29;20209;-77
2023/02/17 02:22:50;;;;;;;9.70;6.63;;;;;10.60;101543.00;;;;10061509;29;20189;-78
2023/02/17 02:28:29;;;;;;;8.97;5.80;;;;;10.60;101543.00;;;;10015257;29;20273;-78
2023/02/17 02:33:34;;;;;;;10.73;5.47;;;;;10.50;101541.00;;;;10046117;29;20296;-78
2023/02/17 02:38:48;;;;;;;12.63;5.77;;;;;10.40;101541.00;;;;10029301;29;20334;-78
2023/02/17 02:43:51;;;;;;;12.20;6.67;;;;;10.40;101517.00;;;;10044103;29;20209;-78
2023/02/17 02:48:53;;;;;;;12.47;7.40;;;;;10.40;101520.00;;;;10043716;29;20213;-78
2023/02/17 02:54:01;;;;;;;10.97;6.53;;;;;10.30;101497.00;;;;10028448;29;20197;-78
2023/02/17 02:59:10;;;;;;;12.07;6.40;;;;;10.20;101488.00;;;;10056654;29;20248;-78
2023/02/17 03:04:26;;;;;;;13.30;6.70;;;;;10.20;101491.00;;;;10040868;29;20193;-77
2023/02/17 03:09:29;;;;;;;9.07;5.37;;;;;10.20;101501.00;;;;10027082;29;20664;-78
2023/02/17 03:14:36;;;;;;;11.77;6.03;;;;;10.20;101495.00;;;;10029183;29;20201;-78
2023/02/17 03:19:38;;;;;;;9.90;5.13;;;;;10.20;101496.00;;;;10028244;29;20213;-78
2023/02/17 03:24:40;;;;;;;6.90;5.07;;;;;10.20;101479.00;;;;10012186;29;20236;-77
2023/02/17 03:29:42;;;;;;;10.93;6.10;;;;;10.20;101493.00;;;;10012861;29;20307;-78
2023/02/17 03:34:45;;;;;;;9.47;5.77;;;;;10.20;101485.00;;;;10042964;29;20232;-77
2023/02/17 03:39:47;;;;;;;10.17;6.70;;;;;10.20;101486.00;;;;10011491;29;20229;-77
2023/02/17 03:44:49;;;;;;;9.77;6.40;;;;;10.20;101493.00;;;;10066691;29;20247;-78
2023/02/17 03:49:51;;;;;;;10.70;5.73;;;;;10.20;101477.00;;;;10022965;29;20197;-78
2023/02/17 03:54:53;;;;;;;10.50;6.40;;;;;10.30;101472.00;;;;10021843;29;20223;-77
2023/02/17 03:59:54;;;;;;;8.03;5.07;;;;;10.30;101474.00;;;;10026607;29;20217;-77
2023/02/17 04:04:56;;;;;;;11.77;6.00;;;;;10.30;101461.00;;;;10027077;29;20185;-78
2023/02/17 04:09:58;;;;;;;7.80;4.87;;;;;10.30;101474.00;;;;10011236;29;20280;-77
2023/02/17 04:15:00;;;;;;;7.77;5.80;;;;;10.30;101488.00;;;;10026027;29;20234;-77
2023/02/17 04:20:05;;;;;;;9.60;5.10;;;;;10.30;101491.00;;;;10040704;29;20216;-77
2023/02/17 04:25:07;;;;;;;12.17;5.37;;;;;10.30;101490.00;;;;10078767;29;20228;-78
2023/02/17 04:30:09;;;;;;;8.87;5.37;;;;;10.30;101490.00;;;;10041851;29;20216;-77
2023/02/17 04:35:13;;;;;;;11.97;5.47;;;;;10.30;101485.00;;;;10025709;29;20236;-78
2023/02/17 04:40:15;;;;;;;8.17;5.13;;;;;10.30;101483.00;;;;10057015;29;20221;-77
2023/02/17 04:45:17;;;;;;;10.93;5.50;;;;;10.30;101497.00;;;;10059253;29;20209;-78
2023/02/17 04:50:20;;;;;;;8.37;4.67;;;;;10.30;101496.00;;;;10039723;29;20219;-77
2023/02/17 04:55:22;;;;;;;8.20;4.17;;;;;10.30;101501.00;;;;10004559;29;20268;-78
2023/02/17 05:00:24;;;;;;;6.50;4.77;;;;;10.30;101488.00;;;;10056293;29;20204;-78
2023/02/17 05:05:26;;;;;;;8.40;4.73;;;;;10.30;101495.00;;;;10063134;29;20690;-77
2023/02/17 05:10:28;;;;;;;7.47;5.13;;;;;10.30;101498.00;;;;10063862;29;20196;-78
2023/02/17 05:15:30;;;;;;;6.27;4.13;;;;;10.30;101497.00;;;;10062887;29;20192;-77
2023/02/17 05:20:35;;;;;;;6.50;4.30;;;;;10.30;101494.00;;;;10063409;29;20252;-78
2023/02/17 05:25:39;;;;;;;11.77;5.20;;;;;10.30;101496.00;;;;10089505;29;20307;-77
2023/02/17 05:30:41;;;;;;;7.27;5.00;;;;;10.30;101488.00;;;;10043808;29;20193;-78
2023/02/17 05:35:43;;;;;;;9.63;4.50;;;;;10.20;101495.00;;;;10045511;29;20265;-77
2023/02/17 05:40:45;;;;;;;7.93;4.43;;;;;10.20;101494.00;;;;9994620;29;20765;-78
2023/02/17 05:45:47;;;;;;;6.60;4.57;;;;;10.00;101480.00;;;;9992563;29;20269;-79
2023/02/17 05:50:49;;;;;;;6.47;3.80;;;;;9.80;101486.00;;;;9993668;29;20595;-78
2023/02/17 05:55:51;;;;;;;6.17;3.80;;;;;9.70;101499.00;;;;10080734;29;20681;-78
2023/02/17 06:00:53;;;;;;;8.63;4.53;;;;;9.70;101488.00;;;;10032442;29;20205;-78
2023/02/17 06:05:55;;;;;;;10.20;4.90;;;;;9.70;101492.00;;;;10031249;29;20209;-79
2023/02/17 06:10:56;;;;;;;7.07;4.37;;;;;9.70;101497.00;;;;10046035;29;20288;-77
2023/02/17 06:15:58;;;;;;;5.73;4.10;;;;;9.80;101495.00;;;;10061811;29;20605;-78
2023/02/17 06:21:01;;;;;;;7.27;4.97;;;;;9.80;101501.00;;;;10047009;29;20189;-78
2023/02/17 06:26:02;;;;;;;8.60;3.97;;;;;9.80;101494.00;;;;10029680;29;20221;-79
2023/02/17 06:31:05;;;;;;;8.80;4.90;;;;;9.90;101502.00;;;;10012706;29;20209;-79
2023/02/17 06:36:07;;;;;;;9.60;4.97;;;;;10.00;101492.00;;;;9991866;29;20300;-78
2023/02/17 06:41:09;;;;;;;8.87;5.00;;;;;10.00;101492.00;;;;9990628;29;20206;-78
2023/02/17 06:46:11;;;;;;;8.40;6.00;;;;;10.00;101502.00;;;;9991569;29;20292;-78
2023/02/17 06:51:13;;;;;;;10.03;5.70;;;;;10.00;101490.00;;;;9991342;29;20216;-79
2023/02/17 06:56:15;;;;;;;11.57;8.63;;;;;10.00;101491.00;;;;10028278;29;20205;-79
2023/02/17 07:01:20;;;;;;;12.53;7.00;;;;;10.10;101485.00;;;;10043406;29;20197;-78
2023/02/17 07:06:23;;;;;;;9.13;5.70;;;;;10.10;101496.00;;;;10043830;29;20205;-78
2023/02/17 07:11:30;;;;;;;10.47;5.87;;;;;10.20;101494.00;;;;10044133;29;20193;-78
2023/02/17 07:16:32;;;;;;;11.00;5.77;;;;;10.30;101491.00;;;;10046216;29;20212;-78
2023/02/17 07:21:34;;;;;;;7.43;5.20;;;;;10.30;101473.00;;;;10066273;29;20207;-78
2023/02/17 07:26:39;;;;;;;9.87;6.03;;;;;10.40;101477.00;;;;10054671;29;20277;-79
2023/02/17 07:31:41;;;;;;;11.53;6.27;;;;;10.40;101483.00;;;;10027805;29;20229;-79
2023/02/17 07:36:43;;;;;;;10.47;6.73;;;;;10.60;101491.00;;;;10036084;29;20216;-79
2023/02/17 07:41:45;;;;;;;9.37;5.57;;;;;10.60;101490.00;;;;10081929;29;20208;-79
2023/02/17 07:46:51;;;;;;;9.13;6.50;;;;;10.70;101487.00;;;;10065550;29;20264;-78
2023/02/17 07:51:53;;;;;;;9.23;5.63;;;;;10.80;101503.00;;;;10054185;29;20212;-79
2023/02/17 07:56:55;;;;;;;8.93;6.27;;;;;10.90;101505.00;;;;9999934;29;20707;-78
2023/02/17 08:01:57;;;;;;;8.40;4.93;;;;;11.00;101488.00;;;;10008715;29;20204;-78
2023/02/17 08:06:59;;;;;;;8.10;5.67;;;;;11.00;101499.00;;;;10011931;29;20598;-78
2023/02/17 08:17:21;;;;;;;9.13;5.13;;;;;11.10;101497.00;;;;10064851;29;20219;-78
2023/02/17 08:22:23;;;;;;;6.63;4.93;;;;;11.20;101494.00;;;;10049561;29;20243;-79
2023/02/17 08:27:25;;;;;;;8.57;5.23;;;;;11.30;101499.00;;;;10061165;29;20216;-78
2023/02/17 08:32:27;;;;;;;8.83;5.47;;;;;11.40;101508.00;;;;10055214;29;20204;-78
2023/02/17 08:37:30;;;;;;;6.73;4.67;;;;;11.50;101520.00;;;;10026100;29;20689;-78
2023/02/17 08:42:32;;;;;;;6.60;3.83;;;;;11.70;101508.00;;;;10074162;29;20298;-78
2023/02/17 08:47:35;;;;;;;6.90;4.07;;;;;11.80;101516.00;;;;10063190;29;20215;-77
2023/02/17 08:52:36;;;;;;;7.60;4.60;;;;;12.00;101500.00;;;;10046992;29;20613;-78
2023/02/17 08:57:38;;;;;;;5.07;3.93;;;;;12.20;101501.00;;;;10018045;29;20217;-78
2023/02/17 09:02:43;;;;;;;5.17;3.10;;;;;12.50;101484.00;;;;10029823;29;20274;-77
2023/02/17 09:07:45;;;;;;;4.83;3.40;;;;;13.00;101513.00;;;;10047000;29;20546;-78
2023/02/17 09:12:47;;;;;;;5.40;3.60;;;;;13.30;101531.00;;;;10031614;29;20189;-78
2023/02/17 09:17:49;;;;;;;6.40;3.80;;;;;13.60;101527.00;;;;10046643;29;20228;-78
2023/02/17 09:22:51;;;;;;;3.67;2.93;;;;;13.60;101518.00;;;;10046372;29;20197;-78
2023/02/17 09:27:53;;;;;;;5.60;2.70;;;;;14.00;101530.00;;;;10031276;29;20233;-78
2023/02/17 09:32:56;;;;;;;5.57;3.13;;;;;14.50;101531.00;;;;10068414;29;20677;-78
2023/02/17 09:37:59;;;;;;;5.80;2.50;;;;;14.80;101538.00;;;;9993441;29;20657;-78
2023/02/17 09:43:01;;;;;;;2.83;2.33;;;;;15.10;101549.00;;;;10018936;29;20910;-78
2023/02/17 09:48:11;;;;;;;5.95;2.50;;;;;15.10;101542.00;;;;10022025;29;20200;-79
2023/02/17 09:53:35;;;;;;;4.15;2.95;;;;;15.50;101545.00;;;;10045811;29;20197;-78
2023/02/17 09:58:41;;;;;;;4.22;3.47;;;;;15.90;101533.00;;;;10041638;29;20223;-78
2023/02/17 10:03:49;;;;;;;3.60;2.40;;;;;15.40;101540.00;;;;10044965;29;20302;-79
2023/02/17 10:09:10;;;;;;;3.20;2.22;;;;;14.90;101562.00;;;;10029328;29;20209;-78
2023/02/17 10:14:34;;;;;;;3.88;1.92;;;;;14.80;101564.00;;;;10014753;29;20683;-78
2023/02/17 10:19:55;;;;;;;2.20;2.00;;;;;15.00;101570.00;;;;10020673;29;20231;-78
2023/02/17 10:24:59;;;;;;;2.35;1.80;;;;;15.50;101579.00;;;;10030257;29;20212;-78
2023/02/17 10:30:21;;;;;;;1.70;1.45;;;;;15.80;101574.00;;;;10028671;29;20204;-78
2023/02/17 10:35:39;;;;;;;2.15;1.95;;;;;15.90;101575.00;;;;10028568;29;20231;-78
2023/02/17 10:40:44;;;;;;;2.85;1.67;;;;;16.20;101582.00;;;;10013798;29;20227;-78
2023/02/17 10:45:50;;;;;;;2.05;1.70;;;;;16.30;101592.00;;;;10047780;29;20209;-78
2023/02/17 10:50:55;;;;;;;4.10;2.13;;;;;16.80;101618.00;;;;10060115;29;20553;-78
2023/02/17 10:56:15;;;;;;;4.55;4.15;;;;;16.70;101606.00;;;;10043515;29;20208;-78
2023/02/17 11:01:17;;;;;;;2.65;2.45;;;;;16.80;101617.00;;;;10013415;29;20234;-78
2023/02/17 11:06:21;;;;;;;1.63;1.52;;;;;17.00;101627.00;;;;10042654;29;20285;-78
2023/02/17 11:11:26;;;;;;;2.38;2.00;;;;;17.30;101634.00;;;;10027916;29;20205;-78
2023/02/17 11:16:38;;;;;;;4.18;1.17;;;;;17.40;101625.00;;;;10028486;29;20204;-78
2023/02/17 11:21:42;;;;;;;1.08;0.82;;;;;17.80;101620.00;;;;10041461;29;20285;-78
2023/02/17 11:26:58;;;;;;;4.30;1.20;;;;;17.30;101626.00;;;;10024657;29;20229;-78
2023/02/17 11:32:06;;;;;;;4.10;1.40;;;;;16.60;101606.00;;;;10042367;29;20208;-78
2023/02/17 11:37:08;;;;;;;2.08;1.65;;;;;17.30;101567.00;;;;10038477;29;20292;-78
2023/02/17 11:42:24;;;;;;;1.60;1.40;;;;;17.60;101623.00;;;;10019717;29;20205;-78
2023/02/17 11:47:56;;;;;;;1.38;1.20;;;;;17.90;101633.00;;;;10032402;29;20205;-78
2023/02/17 11:53:13;;;;;;;0.82;0.60;;;;;18.10;101624.00;;;;10018118;29;20288;-78
2023/02/17 11:58:42;;;;;;;3.30;0.80;;;;;17.60;101621.00;;;;9992199;29;20228;-78
2023/02/17 12:04:21;;;;;;;1.15;0.63;;;;;17.00;101613.00;;;;9984215;29;20217;-78
2023/02/17 12:09:32;;;;;;;1.85;0.65;;;;;17.00;101622.00;;;;10043703;29;20204;-78
2023/02/17 12:14:56;;;;;;;1.88;0.70;;;;;18.20;101598.00;;;;10023294;29;20189;-78
2023/02/17 12:20:06;;;;;;;5.60;0.77;;;;;17.70;101595.00;;;;10024819;29;20213;-78
2023/02/17 12:25:23;;;;;;;1.92;0.52;;;;;16.80;101608.00;;;;10018632;29;20231;-79
2023/02/17 12:31:13;;;;;;;1.70;0.60;;;;;16.60;101595.00;;;;10019830;29;20189;-77
2023/02/17 12:36:18;;;;;;;2.00;1.00;;;;;16.80;101601.00;;;;9960990;29;20269;-78
2023/02/17 12:41:25;;;;;;;0.63;0.43;;;;;16.40;101613.00;;;;10048904;29;20331;-78
2023/02/17 12:46:34;;;;;;;1.55;0.60;;;;;15.80;101621.00;;;;10037760;29;20687;-77
2023/02/17 12:51:53;;;;;;;1.65;0.50;;;;;15.70;101650.00;;;;10039668;29;20216;-77
2023/02/17 12:57:11;;;;;;;1.65;0.40;;;;;15.70;101646.00;;;;10029635;29;20220;-77
2023/02/17 13:02:19;;;;;;;3.97;0.90;;;;;16.00;101639.00;;;;10021490;29;20193;-78
2023/02/17 13:07:44;;;;;;;4.82;2.42;;;;;16.30;101634.00;;;;10032919;29;20201;-78
2023/02/17 13:13:01;;;;;;;0.95;0.40;;;;;16.00;101625.00;;;;10037241;29;20201;-79
2023/02/17 13:18:24;;;;;;;1.10;0.60;;;;;15.80;101632.00;;;;10028794;29;20909;-78
2023/02/17 13:23:37;;;;;;;1.70;0.50;;;;;15.20;101638.00;;;;10014239;29;20926;-78
2023/02/17 13:28:40;;;;;;;1.23;0.80;;;;;15.10;101648.00;;;;10032924;29;20216;-78
2023/02/17 13:33:51;;;;;;;9.90;5.32;;;;;15.10;101634.00;;;;10028429;29;20259;-78
2023/02/17 13:38:59;;;;;;;1.17;0.50;;;;;15.10;101619.00;;;;10023236;29;20222;-78
2023/02/17 13:44:20;;;;;;;1.42;0.70;;;;;15.30;101609.00;;;;10011109;29;20225;-78
2023/02/17 13:49:26;;;;;;;1.75;0.60;;;;;15.60;101598.00;;;;10016149;29;20229;-78
2023/02/17 13:54:28;;;;;;;0.63;0.55;;;;;15.60;101612.00;;;;10041750;29;20201;-78
2023/02/17 13:59:30;;;;;;;0.43;0.43;;;;;15.60;101646.00;;;;10044774;29;20565;-78
2023/02/17 14:04:32;;;;;;;1.65;0.60;;;;;14.90;101648.00;;;;10043019;29;20227;-78
2023/02/17 14:09:34;;;;;;;0.85;0.60;;;;;14.80;101645.00;;;;10044640;29;20208;-79
2023/02/17 14:14:38;;;;;;;1.13;0.70;;;;;14.70;101667.00;;;;9995132;29;20209;-78
2023/02/17 14:19:47;;;;;;;1.35;0.55;;;;;14.40;101673.00;;;;9991136;29;20503;-78
2023/02/17 14:25:07;;;;;;;1.90;0.70;;;;;14.30;101675.00;;;;9997398;29;20233;-79
2023/02/17 14:30:32;;;;;;;0.70;0.50;;;;;13.90;101683.00;;;;10058265;29;20303;-79
2023/02/17 14:35:34;;;;;;;2.10;0.70;;;;;13.70;101678.00;;;;10019642;29;20226;-78
2023/02/17 14:40:37;;;;;;;0.70;0.60;;;;;13.70;101700.00;;;;10016003;29;20220;-78
2023/02/17 14:45:41;;;;;;;1.93;0.77;;;;;13.50;101735.00;;;;10045484;29;20236;-80
2023/02/17 14:50:43;;;;;;;2.77;1.10;;;;;13.30;101752.00;;;;10014675;29;20330;-78
2023/02/17 14:55:52;;;;;;;2.30;1.03;;;;;13.20;101734.00;;;;10068073;29;20296;-78
2023/02/17 15:00:54;;;;;;;7.97;3.13;;;;;13.10;101730.00;;;;10043616;29;20277;-78
2023/02/17 15:05:56;;;;;;;4.07;1.73;;;;;13.00;101726.00;;;;10042528;29;20216;-78
2023/02/17 15:10:59;;;;;;;1.37;1.00;;;;;12.90;101714.00;;;;10069412;29;20212;-78
2023/02/17 15:16:01;;;;;;;2.37;0.90;;;;;12.90;101711.00;;;;10016127;29;20212;-78
2023/02/17 15:21:16;;;;;;;0.90;0.63;;;;;12.80;101735.00;;;;10023985;29;20217;-78
2023/02/17 15:26:18;;;;;;;2.43;1.20;;;;;12.70;101728.00;;;;10041780;29;20231;-79
2023/02/17 15:31:20;;;;;;;1.93;1.33;;;;;12.70;101757.00;;;;10059369;29;20669;-78
2023/02/17 15:36:23;;;;;;;2.07;0.80;;;;;12.60;101755.00;;;;10042716;29;20655;-78
2023/02/17 15:41:26;;;;;;;3.90;1.87;;;;;12.50;101766.00;;;;10043375;29;20240;-78
2023/02/17 15:46:32;;;;;;;4.73;1.90;;;;;12.50;101763.00;;;;10012810;29;20205;-79
2023/02/17 15:51:34;;;;;;;5.80;1.90;;;;;12.40;101780.00;;;;10026285;29;20193;-79
2023/02/17 15:56:47;;;;;;;3.37;2.13;;;;;12.30;101780.00;;;;10011616;29;20212;-79
2023/02/17 16:01:52;;;;;;;2.60;1.83;;;;;12.20;101785.00;;;;10042978;29;20213;-79
2023/02/17 16:06:54;;;;;;;2.03;1.60;;;;;12.00;101792.00;;;;10043731;29;20560;-79
2023/02/17 16:11:56;;;;;;;4.07;2.10;;;;;11.80;101803.00;;;;10010308;29;20198;-79
2023/02/17 16:16:58;;;;;;;2.40;1.60;;;;;11.60;101808.00;;;;10027245;29;20190;-78
2023/02/17 16:21:59;;;;;;;6.43;3.20;;;;;11.40;101817.00;;;;9998956;29;20206;-78
2023/02/17 16:27:02;;;;;;;5.60;3.07;;;;;11.20;101821.00;;;;10044218;29;20328;-78
2023/02/17 16:32:04;;;;;;;4.07;3.53;;;;;11.10;101814.00;;;;10041286;29;20877;-77
2023/02/17 16:37:13;;;;;;;4.27;3.00;;;;;11.00;101818.00;;;;10038977;29;20213;-78
2023/02/17 16:42:15;;;;;;;7.90;2.90;;;;;10.90;101819.00;;;;9988056;29;20217;-78
2023/02/17 16:47:21;;;;;;;5.50;3.47;;;;;10.80;101833.00;;;;10002095;29;20711;-78
2023/02/17 16:52:25;;;;;;;5.77;3.60;;;;;10.80;101838.00;;;;10021145;29;20197;-78
2023/02/17 16:57:27;;;;;;;5.10;3.97;;;;;10.80;101845.00;;;;10028234;29;20221;-79
2023/02/17 17:02:29;;;;;;;3.10;2.70;;;;;10.80;101839.00;;;;10027696;29;20200;-79
2023/02/17 17:07:32;;;;;;;3.90;2.30;;;;;10.80;101823.00;;;;10027225;29;20253;-79
2023/02/17 17:12:34;;;;;;;6.33;3.70;;;;;10.80;101824.00;;;;10040907;29;20193;-79
2023/02/17 17:17:41;;;;;;;7.47;2.90;;;;;10.80;101843.00;;;;10043653;29;20280;-79
2023/02/17 17:22:45;;;;;;;6.13;3.07;;;;;10.80;101851.00;;;;10045190;29;20201;-79
2023/02/17 17:27:47;;;;;;;5.93;3.63;;;;;10.80;101831.00;;;;9993128;29;20253;-78
2023/02/17 17:32:49;;;;;;;5.30;3.47;;;;;10.90;101837.00;;;;10010231;29;20319;-79
2023/02/17 17:37:51;;;;;;;5.13;3.47;;;;;10.80;101832.00;;;;10018700;29;20217;-79
2023/02/17 17:42:53;;;;;;;4.93;3.70;;;;;10.80;101840.00;;;;10033829;29;20220;-79
2023/02/17 17:47:55;;;;;;;4.03;3.47;;;;;10.80;101850.00;;;;10033860;29;20201;-79
2023/02/17 17:52:57;;;;;;;5.20;3.77;;;;;10.80;101827.00;;;;10027750;29;20707;-79
2023/02/17 17:57:59;;;;;;;5.40;3.60;;;;;10.80;101834.00;;;;10021862;29;20223;-79
2023/02/17 18:03:01;;;;;;;6.20;3.97;;;;;10.80;101851.00;;;;10064018;29;20205;-78
2023/02/17 18:08:04;;;;;;;6.53;3.67;;;;;10.90;101860.00;;;;10018875;29;20241;-78
2023/02/17 18:13:08;;;;;;;6.17;3.77;;;;;10.90;101843.00;;;;10040052;29;20208;-79
2023/02/17 18:18:11;;;;;;;5.13;3.60;;;;;10.90;101869.00;;;;10033676;29;20209;-78
2023/02/17 18:23:13;;;;;;;6.33;3.67;;;;;10.90;101873.00;;;;10008423;29;20272;-78
2023/02/17 18:28:15;;;;;;;7.17;3.70;;;;;10.90;101881.00;;;;10017270;29;20288;-78
2023/02/17 18:33:17;;;;;;;4.17;3.33;;;;;10.90;101874.00;;;;10047692;29;20204;-79
2023/02/17 18:38:19;;;;;;;3.67;3.37;;;;;10.90;101886.00;;;;9993451;29;20627;-79
2023/02/17 18:43:21;;;;;;;5.00;3.50;;;;;10.90;101883.00;;;;9992927;29;20225;-78
2023/02/17 18:48:23;;;;;;;5.90;4.20;;;;;10.90;101889.00;;;;10009019;29;20193;-79
2023/02/17 18:53:26;;;;;;;6.10;4.20;;;;;10.90;101894.00;;;;10031030;29;20590;-78
2023/02/17 18:58:31;;;;;;;5.87;4.37;;;;;10.90;101881.00;;;;10036859;29;20216;-78
2023/02/17 19:03:32;;;;;;;4.80;4.00;;;;;10.90;101885.00;;;;10084250;29;20207;-78
2023/02/17 19:08:34;;;;;;;5.73;4.63;;;;;10.90;101894.00;;;;10053873;29;20196;-79
2023/02/17 19:13:37;;;;;;;5.80;4.17;;;;;10.90;101900.00;;;;10067460;29;20200;-78
2023/02/17 19:18:40;;;;;;;21.83;10.10;;;;;10.90;101905.00;;;;10052237;29;20273;-78
2023/02/17 19:23:42;;;;;;;6.90;4.20;;;;;10.90;101902.00;;;;10083761;29;20692;-78
2023/02/17 19:28:44;;;;;;;6.17;5.33;;;;;10.90;101905.00;;;;10018617;29;20209;-78
2023/02/17 19:33:46;;;;;;;5.07;4.43;;;;;10.90;101917.00;;;;10041534;29;20794;-78
2023/02/17 19:38:49;;;;;;;8.50;5.73;;;;;10.90;101933.00;;;;10059104;29;20215;-78
2023/02/17 19:43:51;;;;;;;6.23;5.70;;;;;10.90;101915.00;;;;10049042;29;20641;-78
2023/02/17 19:48:52;;;;;;;6.67;5.67;;;;;10.90;101920.00;;;;10013421;29;20212;-78
2023/02/17 19:53:56;;;;;;;6.50;5.70;;;;;10.90;101924.00;;;;10044299;29;20550;-78
2023/02/17 19:58:59;;;;;;;6.47;5.87;;;;;10.90;101938.00;;;;10013577;29;20585;-79
2023/02/17 20:04:03;;;;;;;6.80;5.63;;;;;10.80;101940.00;;;;10012002;29;20201;-78
2023/02/17 20:09:10;;;;;;;10.83;7.33;;;;;10.80;101935.00;;;;10028390;29;20382;-79
2023/02/17 20:14:12;;;;;;;7.43;6.73;;;;;10.80;101916.00;;;;10028170;29;20216;-77
2023/02/17 20:19:15;;;;;;;10.90;7.90;;;;;10.80;101904.00;;;;10042504;29;20316;-78
2023/02/17 20:24:17;;;;;;;8.70;7.20;;;;;10.80;101936.00;;;;10027753;29;20213;-78
2023/02/17 20:29:19;;;;;;;9.90;7.37;;;;;10.80;101938.00;;;;10058872;29;20224;-78
2023/02/17 20:34:30;;;;;;;8.40;6.73;;;;;10.90;101943.00;;;;10020166;29;20657;-78
2023/02/17 20:39:34;;;;;;;9.53;8.07;;;;;10.90;101948.00;;;;10012526;29;20228;-78
2023/02/17 20:44:36;;;;;;;12.20;6.50;;;;;10.90;101943.00;;;;10065818;29;20184;-77
2023/02/17 20:49:38;;;;;;;10.77;7.67;;;;;10.90;101943.00;;;;10065483;29;20220;-78
2023/02/17 20:54:40;;;;;;;10.27;8.17;;;;;10.90;101938.00;;;;10064456;29;20200;-79
2023/02/17 20:59:42;;;;;;;11.20;8.20;;;;;10.90;101938.00;;;;10031400;29;20220;-78
2023/02/17 21:04:44;;;;;;;9.73;7.73;;;;;10.90;101949.00;;;;10034723;29;20209;-77
2023/02/17 21:09:46;;;;;;;9.57;7.93;;;;;10.90;101946.00;;;;10019341;29;20197;-78
2023/02/17 21:14:48;;;;;;;12.47;8.60;;;;;10.90;101952.00;;;;10033526;29;20212;-78
2023/02/17 21:19:50;;;;;;;12.07;8.90;;;;;10.90;101949.00;;;;10063760;29;20291;-78
2023/02/17 21:24:52;;;;;;;13.20;8.17;;;;;10.90;101940.00;;;;10047619;29;20228;-78
2023/02/17 21:29:54;;;;;;;9.73;8.13;;;;;10.90;101930.00;;;;10024720;29;20546;-79
2023/02/17 21:34:56;;;;;;;12.40;8.60;;;;;10.90;101930.00;;;;10040770;29;20232;-78
2023/02/17 21:39:59;;;;;;;12.70;8.70;;;;;10.90;101935.00;;;;10064107;29;20235;-78
2023/02/17 21:45:02;;;;;;;12.87;9.33;;;;;10.90;101932.00;;;;10016922;29;20201;-78
2023/02/17 21:50:05;;;;;;;14.00;10.00;;;;;10.80;101921.00;;;;9994610;29;20201;-78
2023/02/17 21:55:07;;;;;;;14.70;10.57;;;;;10.80;101930.00;;;;10016103;29;20193;-78
2023/02/17 22:00:10;;;;;;;13.33;10.00;;;;;10.80;101928.00;;;;10080762;29;20224;-78
2023/02/17 22:05:13;;;;;;;17.63;10.87;;;;;10.80;101929.00;;;;10032829;29;20236;-78
2023/02/17 22:10:16;;;;;;;15.17;11.40;;;;;10.80;101929.00;;;;10017250;29;20672;-78
2023/02/17 22:15:18;;;;;;;19.83;11.93;;;;;10.80;101933.00;;;;10033816;29;20655;-78
2023/02/17 22:20:20;;;;;;;17.00;11.03;;;;;10.80;101931.00;;;;10006623;29;20218;-78
2023/02/17 22:25:23;;;;;;;21.67;12.93;;;;;10.80;101929.00;;;;9995414;29;20224;-78
2023/02/17 22:30:26;;;;;;;15.70;10.30;;;;;10.80;101916.00;;;;10032331;29;20564;-78
2023/02/17 22:35:28;;;;;;;15.87;11.27;;;;;10.80;101918.00;;;;9984384;29;20617;-78
2023/02/17 22:40:30;;;;;;;18.03;12.07;;;;;10.70;101925.00;;;;9979918;29;20230;-79
2023/02/17 22:45:32;;;;;;;20.23;12.57;;;;;10.70;101938.00;;;;9996570;29;20258;-78
2023/02/17 22:50:40;;;;;;;16.27;11.07;;;;;10.70;101925.00;;;;10011394;29;20658;-78
2023/02/17 22:55:49;;;;;;;18.80;12.37;;;;;10.70;101908.00;;;;10031300;29;20576;-78
2023/02/17 23:01:05;;;;;;;17.67;12.47;;;;;10.70;101912.00;;;;10045566;29;20208;-78
2023/02/17 23:06:11;;;;;;;21.57;12.80;;;;;10.70;101913.00;;;;10015704;29;20316;-78
2023/02/17 23:11:48;;;;;;;19.90;13.00;;;;;10.60;101910.00;;;;10030831;29;20193;-78
2023/02/17 23:16:40;;;;;;;19.40;12.97;;;;;10.60;101892.00;;;;10029935;29;20216;-78
2023/02/17 23:21:45;;;;;;;22.40;13.20;;;;;10.60;101888.00;;;;10022394;29;20240;-78
2023/02/17 23:26:48;;;;;;;22.47;13.60;;;;;10.60;101892.00;;;;10055405;29;20267;-79
2023/02/17 23:31:50;;;;;;;18.20;12.60;;;;;10.60;101906.00;;;;10061619;29;20197;-78
2023/02/17 23:36:52;;;;;;;22.40;13.23;;;;;10.60;101901.00;;;;10062634;29;20200;-78
2023/02/17 23:41:54;;;;;;;20.60;12.77;;;;;10.60;101894.00;;;;10033324;29;20236;-79
2023/02/17 23:46:56;;;;;;;20.37;13.17;;;;;10.60;101898.00;;;;10042784;29;20208;-77
2023/02/17 23:51:58;;;;;;;24.47;13.10;;;;;10.60;101890.00;;;;10042424;29;20190;-78
2023/02/17 23:57:00;;;;;;;18.80;12.33;;;;;10.60;101875.00;;;;10016741;29;20303;-78
